sensor_id;sensor_type;location;lat;lon;timestamp;temperature;humidity
51305;HTU21D;37392;50.964;6.952;2023-03-04T00:01:52;3.26;100.38
51305;HTU21D;37392;50.964;6.952;2023-03-04T00:04:18;3.28;100.39
51305;HTU21D;37392;50.964;6.952;2023-03-04T00:06:43;3.31;100.38
51305;HTU21D;37392;50.964;6.952;2023-03-04T00:09:09;3.32;100.43
51305;HTU21D;37392;50.964;6.952;2023-03-04T00:11:34;3.33;100.38
51305;HTU21D;37392;50.964;6.952;2023-03-04T00:14:00;3.32;100.39
51305;HTU21D;37392;50.964;6.952;2023-03-04T00:16:26;3.29;100.40
51305;HTU21D;37392;50.964;6.952;2023-03-04T00:18:56;3.33;100.43
51305;HTU21D;37392;50.964;6.952;2023-03-04T00:21:22;3.34;100.45
51305;HTU21D;37392;50.964;6.952;2023-03-04T00:23:48;3.35;100.46
51305;HTU21D;37392;50.964;6.952;2023-03-04T00:26:14;3.40;100.48
51305;HTU21D;37392;50.964;6.952;2023-03-04T00:28:40;3.42;100.48
51305;HTU21D;37392;50.964;6.952;2023-03-04T00:31:06;3.43;100.47
51305;HTU21D;37392;50.964;6.952;2023-03-04T00:33:32;3.44;100.41
51305;HTU21D;37392;50.964;6.952;2023-03-04T00:35:58;3.44;100.41
51305;HTU21D;37392;50.964;6.952;2023-03-04T00:38:24;3.45;100.42
51305;HTU21D;37392;50.964;6.952;2023-03-04T00:40:50;3.50;100.43
51305;HTU21D;37392;50.964;6.952;2023-03-04T00:43:16;3.48;100.41
51305;HTU21D;37392;50.964;6.952;2023-03-04T00:45:41;3.49;100.41
51305;HTU21D;37392;50.964;6.952;2023-03-04T00:48:07;3.56;100.39
51305;HTU21D;37392;50.964;6.952;2023-03-04T00:50:33;3.52;100.48
51305;HTU21D;37392;50.964;6.952;2023-03-04T00:52:58;3.54;100.45
51305;HTU21D;37392;50.964;6.952;2023-03-04T00:55:24;3.56;100.43
51305;HTU21D;37392;50.964;6.952;2023-03-04T00:57:49;3.57;100.42
51305;HTU21D;37392;50.964;6.952;2023-03-04T01:00:16;3.59;100.45
51305;HTU21D;37392;50.964;6.952;2023-03-04T01:02:41;3.60;100.42
51305;HTU21D;37392;50.964;6.952;2023-03-04T01:05:07;3.64;100.37
51305;HTU21D;37392;50.964;6.952;2023-03-04T01:07:34;3.61;100.22
51305;HTU21D;37392;50.964;6.952;2023-03-04T01:09:59;3.65;100.19
51305;HTU21D;37392;50.964;6.952;2023-03-04T01:12:25;3.64;100.12
51305;HTU21D;37392;50.964;6.952;2023-03-04T01:14:50;3.63;100.02
51305;HTU21D;37392;50.964;6.952;2023-03-04T01:17:16;3.67;99.95
51305;HTU21D;37392;50.964;6.952;2023-03-04T01:19:42;3.69;99.78
51305;HTU21D;37392;50.964;6.952;2023-03-04T01:22:07;3.71;99.69
51305;HTU21D;37392;50.964;6.952;2023-03-04T01:24:34;3.72;99.48
51305;HTU21D;37392;50.964;6.952;2023-03-04T01:27:00;3.73;99.44
51305;HTU21D;37392;50.964;6.952;2023-03-04T01:29:26;3.73;99.34
51305;HTU21D;37392;50.964;6.952;2023-03-04T01:31:52;3.73;99.30
51305;HTU21D;37392;50.964;6.952;2023-03-04T01:34:17;3.77;99.23
51305;HTU21D;37392;50.964;6.952;2023-03-04T01:36:43;3.78;98.94
51305;HTU21D;37392;50.964;6.952;2023-03-04T01:39:08;3.74;98.77
51305;HTU21D;37392;50.964;6.952;2023-03-04T01:41:34;3.79;98.74
51305;HTU21D;37392;50.964;6.952;2023-03-04T01:44:00;3.83;98.63
51305;HTU21D;37392;50.964;6.952;2023-03-04T01:46:27;3.85;98.39
51305;HTU21D;37392;50.964;6.952;2023-03-04T01:48:53;3.85;98.09
51305;HTU21D;37392;50.964;6.952;2023-03-04T01:51:20;3.87;98.02
51305;HTU21D;37392;50.964;6.952;2023-03-04T01:53:48;3.88;97.84
51305;HTU21D;37392;50.964;6.952;2023-03-04T01:56:24;3.88;97.87
51305;HTU21D;37392;50.964;6.952;2023-03-04T02:01:40;3.90;97.69
51305;HTU21D;37392;50.964;6.952;2023-03-04T02:04:08;3.89;97.56
51305;HTU21D;37392;50.964;6.952;2023-03-04T02:06:39;3.93;97.56
51305;HTU21D;37392;50.964;6.952;2023-03-04T02:09:05;3.88;97.45
51305;HTU21D;37392;50.964;6.952;2023-03-04T02:11:32;3.91;97.45
51305;HTU21D;37392;50.964;6.952;2023-03-04T02:13:59;3.92;97.36
51305;HTU21D;37392;50.964;6.952;2023-03-04T02:16:25;3.91;97.28
51305;HTU21D;37392;50.964;6.952;2023-03-04T02:21:59;3.97;97.02
51305;HTU21D;37392;50.964;6.952;2023-03-04T02:24:35;3.98;96.84
51305;HTU21D;37392;50.964;6.952;2023-03-04T02:27:03;4.01;96.68
51305;HTU21D;37392;50.964;6.952;2023-03-04T02:29:29;4.02;96.56
51305;HTU21D;37392;50.964;6.952;2023-03-04T02:31:55;4.02;96.51
51305;HTU21D;37392;50.964;6.952;2023-03-04T02:34:27;4.02;96.50
51305;HTU21D;37392;50.964;6.952;2023-03-04T02:36:55;4.06;96.40
51305;HTU21D;37392;50.964;6.952;2023-03-04T02:39:30;4.04;96.43
51305;HTU21D;37392;50.964;6.952;2023-03-04T02:42:00;4.06;96.20
51305;HTU21D;37392;50.964;6.952;2023-03-04T02:44:28;4.07;96.10
51305;HTU21D;37392;50.964;6.952;2023-03-04T02:46:55;4.05;95.83
51305;HTU21D;37392;50.964;6.952;2023-03-04T02:49:23;4.07;95.85
51305;HTU21D;37392;50.964;6.952;2023-03-04T02:52:00;4.07;95.88
51305;HTU21D;37392;50.964;6.952;2023-03-04T02:54:30;4.13;95.81
51305;HTU21D;37392;50.964;6.952;2023-03-04T02:56:59;4.13;95.72
51305;HTU21D;37392;50.964;6.952;2023-03-04T02:59:27;4.12;95.57
51305;HTU21D;37392;50.964;6.952;2023-03-04T03:01:53;4.15;95.36
51305;HTU21D;37392;50.964;6.952;2023-03-04T03:04:20;4.19;95.36
51305;HTU21D;37392;50.964;6.952;2023-03-04T03:06:46;4.18;95.16
51305;HTU21D;37392;50.964;6.952;2023-03-04T03:09:12;4.21;95.02
51305;HTU21D;37392;50.964;6.952;2023-03-04T03:11:38;4.22;95.10
51305;HTU21D;37392;50.964;6.952;2023-03-04T03:14:04;4.23;94.97
51305;HTU21D;37392;50.964;6.952;2023-03-04T03:16:29;4.26;94.91
51305;HTU21D;37392;50.964;6.952;2023-03-04T03:18:55;4.27;94.78
51305;HTU21D;37392;50.964;6.952;2023-03-04T03:21:21;4.28;94.70
51305;HTU21D;37392;50.964;6.952;2023-03-04T03:23:47;4.30;94.65
51305;HTU21D;37392;50.964;6.952;2023-03-04T03:26:13;4.30;94.56
51305;HTU21D;37392;50.964;6.952;2023-03-04T03:28:38;4.32;94.49
51305;HTU21D;37392;50.964;6.952;2023-03-04T03:31:04;4.32;94.44
51305;HTU21D;37392;50.964;6.952;2023-03-04T03:33:30;4.35;94.39
51305;HTU21D;37392;50.964;6.952;2023-03-04T03:35:56;4.35;94.33
51305;HTU21D;37392;50.964;6.952;2023-03-04T03:38:21;4.35;94.36
51305;HTU21D;37392;50.964;6.952;2023-03-04T03:40:47;4.36;94.40
51305;HTU21D;37392;50.964;6.952;2023-03-04T03:43:12;4.37;94.40
51305;HTU21D;37392;50.964;6.952;2023-03-04T03:45:38;4.37;94.31
51305;HTU21D;37392;50.964;6.952;2023-03-04T03:48:04;4.38;94.33
51305;HTU21D;37392;50.964;6.952;2023-03-04T03:50:30;4.38;94.35
51305;HTU21D;37392;50.964;6.952;2023-03-04T03:52:55;4.38;94.37
51305;HTU21D;37392;50.964;6.952;2023-03-04T03:55:22;4.41;94.39
51305;HTU21D;37392;50.964;6.952;2023-03-04T03:57:47;4.42;94.38
51305;HTU21D;37392;50.964;6.952;2023-03-04T04:00:13;4.42;94.21
51305;HTU21D;37392;50.964;6.952;2023-03-04T04:02:40;4.42;94.19
51305;HTU21D;37392;50.964;6.952;2023-03-04T04:05:07;4.45;94.19
51305;HTU21D;37392;50.964;6.952;2023-03-04T04:07:34;4.42;94.20
51305;HTU21D;37392;50.964;6.952;2023-03-04T04:10:00;4.45;94.20
51305;HTU21D;37392;50.964;6.952;2023-03-04T04:12:26;4.42;94.21
51305;HTU21D;37392;50.964;6.952;2023-03-04T04:14:52;4.43;94.29
51305;HTU21D;37392;50.964;6.952;2023-03-04T04:17:17;4.43;94.20
51305;HTU21D;37392;50.964;6.952;2023-03-04T04:19:43;4.45;94.21
51305;HTU21D;37392;50.964;6.952;2023-03-04T04:22:14;4.49;94.21
51305;HTU21D;37392;50.964;6.952;2023-03-04T04:24:41;4.50;94.13
51305;HTU21D;37392;50.964;6.952;2023-03-04T04:27:06;4.53;94.13
51305;HTU21D;37392;50.964;6.952;2023-03-04T04:29:32;4.52;94.15
51305;HTU21D;37392;50.964;6.952;2023-03-04T04:31:57;4.48;94.21
51305;HTU21D;37392;50.964;6.952;2023-03-04T04:34:23;4.50;94.24
51305;HTU21D;37392;50.964;6.952;2023-03-04T04:36:49;4.52;94.32
51305;HTU21D;37392;50.964;6.952;2023-03-04T04:39:15;4.50;94.32
51305;HTU21D;37392;50.964;6.952;2023-03-04T04:41:42;4.54;94.33
51305;HTU21D;37392;50.964;6.952;2023-03-04T04:44:09;4.53;94.31
51305;HTU21D;37392;50.964;6.952;2023-03-04T04:46:36;4.57;94.25
51305;HTU21D;37392;50.964;6.952;2023-03-04T04:49:03;4.58;94.32
51305;HTU21D;37392;50.964;6.952;2023-03-04T04:51:30;4.59;94.27
51305;HTU21D;37392;50.964;6.952;2023-03-04T04:53:58;4.59;94.14
51305;HTU21D;37392;50.964;6.952;2023-03-04T04:56:24;4.61;94.03
51305;HTU21D;37392;50.964;6.952;2023-03-04T04:58:52;4.59;94.05
51305;HTU21D;37392;50.964;6.952;2023-03-04T05:01:19;4.62;94.07
51305;HTU21D;37392;50.964;6.952;2023-03-04T05:03:45;4.61;94.11
51305;HTU21D;37392;50.964;6.952;2023-03-04T05:06:11;4.61;93.94
51305;HTU21D;37392;50.964;6.952;2023-03-04T05:08:37;4.62;93.84
51305;HTU21D;37392;50.964;6.952;2023-03-04T05:11:04;4.63;93.82
51305;HTU21D;37392;50.964;6.952;2023-03-04T05:13:31;4.65;93.76
51305;HTU21D;37392;50.964;6.952;2023-03-04T05:15:57;4.68;93.25
51305;HTU21D;37392;50.964;6.952;2023-03-04T05:18:23;4.71;93.09
51305;HTU21D;37392;50.964;6.952;2023-03-04T05:20:51;4.68;93.18
51305;HTU21D;37392;50.964;6.952;2023-03-04T05:23:18;4.68;93.15
51305;HTU21D;37392;50.964;6.952;2023-03-04T05:25:44;4.71;93.13
51305;HTU21D;37392;50.964;6.952;2023-03-04T05:28:11;4.68;93.19
51305;HTU21D;37392;50.964;6.952;2023-03-04T05:30:38;4.71;93.21
51305;HTU21D;37392;50.964;6.952;2023-03-04T05:33:04;4.72;93.11
51305;HTU21D;37392;50.964;6.952;2023-03-04T05:35:31;4.73;92.86
51305;HTU21D;37392;50.964;6.952;2023-03-04T05:37:57;4.71;93.06
51305;HTU21D;37392;50.964;6.952;2023-03-04T05:40:22;4.71;93.21
51305;HTU21D;37392;50.964;6.952;2023-03-04T05:42:50;4.72;93.17
51305;HTU21D;37392;50.964;6.952;2023-03-04T05:45:15;4.75;93.14
51305;HTU21D;37392;50.964;6.952;2023-03-04T05:47:41;4.75;93.08
51305;HTU21D;37392;50.964;6.952;2023-03-04T05:50:07;4.77;93.09
51305;HTU21D;37392;50.964;6.952;2023-03-04T05:52:33;4.77;92.98
51305;HTU21D;37392;50.964;6.952;2023-03-04T05:54:58;4.77;93.06
51305;HTU21D;37392;50.964;6.952;2023-03-04T05:57:24;4.74;93.13
51305;HTU21D;37392;50.964;6.952;2023-03-04T05:59:49;4.77;93.09
51305;HTU21D;37392;50.964;6.952;2023-03-04T06:02:15;4.77;93.13
51305;HTU21D;37392;50.964;6.952;2023-03-04T06:04:40;4.78;93.12
51305;HTU21D;37392;50.964;6.952;2023-03-04T06:07:06;4.78;93.15
51305;HTU21D;37392;50.964;6.952;2023-03-04T06:09:32;4.79;93.21
51305;HTU21D;37392;50.964;6.952;2023-03-04T06:11:57;4.78;93.11
51305;HTU21D;37392;50.964;6.952;2023-03-04T06:14:23;4.80;93.11
51305;HTU21D;37392;50.964;6.952;2023-03-04T06:16:48;4.82;93.14
51305;HTU21D;37392;50.964;6.952;2023-03-04T06:19:14;4.83;93.24
51305;HTU21D;37392;50.964;6.952;2023-03-04T06:21:40;4.86;93.30
51305;HTU21D;37392;50.964;6.952;2023-03-04T06:24:05;4.89;93.28
51305;HTU21D;37392;50.964;6.952;2023-03-04T06:26:31;4.91;93.08
51305;HTU21D;37392;50.964;6.952;2023-03-04T06:28:56;4.90;93.14
51305;HTU21D;37392;50.964;6.952;2023-03-04T06:31:22;4.94;93.01
51305;HTU21D;37392;50.964;6.952;2023-03-04T06:33:47;4.97;92.93
51305;HTU21D;37392;50.964;6.952;2023-03-04T06:36:13;4.94;93.08
51305;HTU21D;37392;50.964;6.952;2023-03-04T06:38:39;4.95;93.13
51305;HTU21D;37392;50.964;6.952;2023-03-04T06:41:06;4.97;93.14
51305;HTU21D;37392;50.964;6.952;2023-03-04T06:43:33;5.00;93.17
51305;HTU21D;37392;50.964;6.952;2023-03-04T06:45:59;5.01;93.09
51305;HTU21D;37392;50.964;6.952;2023-03-04T06:48:24;5.02;92.89
51305;HTU21D;37392;50.964;6.952;2023-03-04T06:50:50;5.06;92.83
51305;HTU21D;37392;50.964;6.952;2023-03-04T06:53:16;5.06;92.69
51305;HTU21D;37392;50.964;6.952;2023-03-04T06:55:41;5.10;92.63
51305;HTU21D;37392;50.964;6.952;2023-03-04T06:58:07;5.10;92.52
51305;HTU21D;37392;50.964;6.952;2023-03-04T07:00:32;5.16;92.50
51305;HTU21D;37392;50.964;6.952;2023-03-04T07:02:58;5.18;92.40
51305;HTU21D;37392;50.964;6.952;2023-03-04T07:05:24;5.16;92.42
51305;HTU21D;37392;50.964;6.952;2023-03-04T07:07:50;5.19;92.32
51305;HTU21D;37392;50.964;6.952;2023-03-04T07:10:18;5.18;92.46
51305;HTU21D;37392;50.964;6.952;2023-03-04T07:12:44;5.23;92.57
51305;HTU21D;37392;50.964;6.952;2023-03-04T07:15:10;5.22;92.60
51305;HTU21D;37392;50.964;6.952;2023-03-04T07:17:36;5.23;92.56
51305;HTU21D;37392;50.964;6.952;2023-03-04T07:20:02;5.30;92.53
51305;HTU21D;37392;50.964;6.952;2023-03-04T07:22:28;5.32;92.40
51305;HTU21D;37392;50.964;6.952;2023-03-04T07:24:54;5.33;92.42
51305;HTU21D;37392;50.964;6.952;2023-03-04T07:27:20;5.31;92.37
51305;HTU21D;37392;50.964;6.952;2023-03-04T07:29:46;5.36;92.36
51305;HTU21D;37392;50.964;6.952;2023-03-04T07:32:12;5.38;92.10
51305;HTU21D;37392;50.964;6.952;2023-03-04T07:34:37;5.34;92.11
51305;HTU21D;37392;50.964;6.952;2023-03-04T07:37:03;5.38;92.14
51305;HTU21D;37392;50.964;6.952;2023-03-04T07:39:28;5.40;92.10
51305;HTU21D;37392;50.964;6.952;2023-03-04T07:41:54;5.41;92.06
51305;HTU21D;37392;50.964;6.952;2023-03-04T07:44:21;5.45;91.94
51305;HTU21D;37392;50.964;6.952;2023-03-04T07:46:46;5.50;91.95
51305;HTU21D;37392;50.964;6.952;2023-03-04T07:49:12;5.55;91.58
51305;HTU21D;37392;50.964;6.952;2023-03-04T07:51:38;5.56;91.53
51305;HTU21D;37392;50.964;6.952;2023-03-04T07:54:04;5.61;91.33
51305;HTU21D;37392;50.964;6.952;2023-03-04T07:56:32;5.64;91.04
51305;HTU21D;37392;50.964;6.952;2023-03-04T07:58:59;5.70;90.82
51305;HTU21D;37392;50.964;6.952;2023-03-04T08:01:33;5.74;90.69
51305;HTU21D;37392;50.964;6.952;2023-03-04T08:04:01;5.77;90.46
51305;HTU21D;37392;50.964;6.952;2023-03-04T08:06:28;5.82;90.36
51305;HTU21D;37392;50.964;6.952;2023-03-04T08:09:00;5.80;89.92
51305;HTU21D;37392;50.964;6.952;2023-03-04T08:11:29;5.89;89.96
51305;HTU21D;37392;50.964;6.952;2023-03-04T08:13:55;5.91;89.54
51305;HTU21D;37392;50.964;6.952;2023-03-04T08:16:21;5.95;89.53
51305;HTU21D;37392;50.964;6.952;2023-03-04T08:18:50;5.97;89.35
51305;HTU21D;37392;50.964;6.952;2023-03-04T08:21:18;5.97;89.17
51305;HTU21D;37392;50.964;6.952;2023-03-04T08:23:45;6.07;89.10
51305;HTU21D;37392;50.964;6.952;2023-03-04T08:26:21;6.14;89.01
51305;HTU21D;37392;50.964;6.952;2023-03-04T08:28:49;6.19;88.80
51305;HTU21D;37392;50.964;6.952;2023-03-04T08:31:16;6.20;88.85
51305;HTU21D;37392;50.964;6.952;2023-03-04T08:33:43;6.23;88.81
51305;HTU21D;37392;50.964;6.952;2023-03-04T08:36:10;6.25;88.96
51305;HTU21D;37392;50.964;6.952;2023-03-04T08:38:36;6.25;88.96
51305;HTU21D;37392;50.964;6.952;2023-03-04T08:41:02;6.29;89.00
51305;HTU21D;37392;50.964;6.952;2023-03-04T08:43:29;6.26;89.14
51305;HTU21D;37392;50.964;6.952;2023-03-04T08:45:55;6.33;89.13
51305;HTU21D;37392;50.964;6.952;2023-03-04T08:48:22;6.36;88.98
51305;HTU21D;37392;50.964;6.952;2023-03-04T08:50:49;6.40;89.25
51305;HTU21D;37392;50.964;6.952;2023-03-04T08:53:16;6.46;89.40
51305;HTU21D;37392;50.964;6.952;2023-03-04T08:55:42;6.53;89.30
51305;HTU21D;37392;50.964;6.952;2023-03-04T08:58:17;6.61;89.79
51305;HTU21D;37392;50.964;6.952;2023-03-04T09:00:47;6.68;90.56
51305;HTU21D;37392;50.964;6.952;2023-03-04T09:03:16;6.70;90.52
51305;HTU21D;37392;50.964;6.952;2023-03-04T09:05:44;6.83;90.22
51305;HTU21D;37392;50.964;6.952;2023-03-04T09:08:11;6.83;89.53
51305;HTU21D;37392;50.964;6.952;2023-03-04T09:10:37;7.00;89.34
51305;HTU21D;37392;50.964;6.952;2023-03-04T09:13:03;7.18;88.38
51305;HTU21D;37392;50.964;6.952;2023-03-04T09:15:31;7.37;87.73
51305;HTU21D;37392;50.964;6.952;2023-03-04T09:18:01;7.45;87.08
51305;HTU21D;37392;50.964;6.952;2023-03-04T09:20:28;7.55;86.87
51305;HTU21D;37392;50.964;6.952;2023-03-04T09:22:54;7.78;86.14
51305;HTU21D;37392;50.964;6.952;2023-03-04T09:25:20;7.93;85.53
51305;HTU21D;37392;50.964;6.952;2023-03-04T09:27:46;8.04;85.21
51305;HTU21D;37392;50.964;6.952;2023-03-04T09:30:15;8.20;84.88
51305;HTU21D;37392;50.964;6.952;2023-03-04T09:32:40;8.36;84.60
51305;HTU21D;37392;50.964;6.952;2023-03-04T09:35:06;8.61;84.42
51305;HTU21D;37392;50.964;6.952;2023-03-04T09:37:34;8.61;83.75
51305;HTU21D;37392;50.964;6.952;2023-03-04T09:40:00;8.53;83.94
51305;HTU21D;37392;50.964;6.952;2023-03-04T09:42:45;8.58;83.93
51305;HTU21D;37392;50.964;6.952;2023-03-04T09:45:26;8.60;83.42
51305;HTU21D;37392;50.964;6.952;2023-03-04T09:48:04;8.63;83.13
51305;HTU21D;37392;50.964;6.952;2023-03-04T09:50:32;8.52;82.93
51305;HTU21D;37392;50.964;6.952;2023-03-04T09:53:22;8.27;83.16
51305;HTU21D;37392;50.964;6.952;2023-03-04T09:56:12;8.24;84.10
51305;HTU21D;37392;50.964;6.952;2023-03-04T10:01:58;8.32;83.50
51305;HTU21D;37392;50.964;6.952;2023-03-04T10:07:01;8.24;83.96
51305;HTU21D;37392;50.964;6.952;2023-03-04T10:10:02;8.12;84.69
51305;HTU21D;37392;50.964;6.952;2023-03-04T10:12:33;8.05;84.95
51305;HTU21D;37392;50.964;6.952;2023-03-04T10:15:04;8.24;84.52
51305;HTU21D;37392;50.964;6.952;2023-03-04T10:17:37;8.42;83.49
51305;HTU21D;37392;50.964;6.952;2023-03-04T10:20:14;8.45;82.39
51305;HTU21D;37392;50.964;6.952;2023-03-04T10:22:46;8.78;82.91
51305;HTU21D;37392;50.964;6.952;2023-03-04T10:25:32;8.82;82.23
51305;HTU21D;37392;50.964;6.952;2023-03-04T10:28:15;8.88;83.67
51305;HTU21D;37392;50.964;6.952;2023-03-04T10:30:49;8.77;87.40
51305;HTU21D;37392;50.964;6.952;2023-03-04T10:33:32;8.60;93.93
51305;HTU21D;37392;50.964;6.952;2023-03-04T10:36:28;8.55;95.52
51305;HTU21D;37392;50.964;6.952;2023-03-04T10:39:02;8.48;95.85
51305;HTU21D;37392;50.964;6.952;2023-03-04T10:41:31;8.52;93.91
51305;HTU21D;37392;50.964;6.952;2023-03-04T10:44:04;8.74;93.54
51305;HTU21D;37392;50.964;6.952;2023-03-04T10:46:45;9.03;92.30
51305;HTU21D;37392;50.964;6.952;2023-03-04T10:49:14;9.37;89.76
51305;HTU21D;37392;50.964;6.952;2023-03-04T10:51:44;9.67;86.86
51305;HTU21D;37392;50.964;6.952;2023-03-04T10:57:14;9.85;84.45
51305;HTU21D;37392;50.964;6.952;2023-03-04T11:03:22;9.60;83.63
51305;HTU21D;37392;50.964;6.952;2023-03-04T11:06:06;9.53;86.61
51305;HTU21D;37392;50.964;6.952;2023-03-04T11:08:39;9.52;88.44
51305;HTU21D;37392;50.964;6.952;2023-03-04T11:11:21;9.59;88.32
51305;HTU21D;37392;50.964;6.952;2023-03-04T11:13:59;9.83;87.79
51305;HTU21D;37392;50.964;6.952;2023-03-04T11:16:34;10.36;84.73
51305;HTU21D;37392;50.964;6.952;2023-03-04T11:19:09;10.53;81.09
51305;HTU21D;37392;50.964;6.952;2023-03-04T11:21:38;10.57;80.15
51305;HTU21D;37392;50.964;6.952;2023-03-04T11:24:12;10.74;79.37
51305;HTU21D;37392;50.964;6.952;2023-03-04T11:26:44;10.57;77.92
51305;HTU21D;37392;50.964;6.952;2023-03-04T11:29:29;10.65;78.27
51305;HTU21D;37392;50.964;6.952;2023-03-04T11:35:00;10.64;77.03
51305;HTU21D;37392;50.964;6.952;2023-03-04T11:37:56;10.71;77.39
51305;HTU21D;37392;50.964;6.952;2023-03-04T11:40:37;10.66;77.28
51305;HTU21D;37392;50.964;6.952;2023-03-04T11:43:15;10.56;77.64
51305;HTU21D;37392;50.964;6.952;2023-03-04T11:48:48;10.36;77.59
51305;HTU21D;37392;50.964;6.952;2023-03-04T11:56:59;10.26;78.32
51305;HTU21D;37392;50.964;6.952;2023-03-04T12:03:07;9.85;79.56
51305;HTU21D;37392;50.964;6.952;2023-03-04T12:12:04;9.47;81.01
51305;HTU21D;37392;50.964;6.952;2023-03-04T12:26:41;10.00;79.14
51305;HTU21D;37392;50.964;6.952;2023-03-04T12:33:23;10.12;77.85
51305;HTU21D;37392;50.964;6.952;2023-03-04T12:37:54;10.03;78.04
51305;HTU21D;37392;50.964;6.952;2023-03-04T12:40:32;10.00;78.20
51305;HTU21D;37392;50.964;6.952;2023-03-04T12:52:18;9.75;78.68
51305;HTU21D;37392;50.964;6.952;2023-03-04T12:54:54;9.68;79.27
51305;HTU21D;37392;50.964;6.952;2023-03-04T12:57:27;9.62;79.35
51305;HTU21D;37392;50.964;6.952;2023-03-04T13:03:10;9.91;79.13
51305;HTU21D;37392;50.964;6.952;2023-03-04T13:08:37;9.80;78.69
51305;HTU21D;37392;50.964;6.952;2023-03-04T13:14:01;9.52;79.64
51305;HTU21D;37392;50.964;6.952;2023-03-04T13:19:55;9.32;80.97
51305;HTU21D;37392;50.964;6.952;2023-03-04T13:24:56;9.25;80.84
51305;HTU21D;37392;50.964;6.952;2023-03-04T13:27:46;9.48;80.43
51305;HTU21D;37392;50.964;6.952;2023-03-04T13:44:01;9.62;79.54
51305;HTU21D;37392;50.964;6.952;2023-03-04T13:46:47;9.64;79.87
51305;HTU21D;37392;50.964;6.952;2023-03-04T13:49:20;9.69;79.86
51305;HTU21D;37392;50.964;6.952;2023-03-04T13:51:48;9.68;79.91
51305;HTU21D;37392;50.964;6.952;2023-03-04T13:54:30;9.69;80.20
51305;HTU21D;37392;50.964;6.952;2023-03-04T13:59:52;9.56;80.46
51305;HTU21D;37392;50.964;6.952;2023-03-04T14:02:20;9.50;80.92
51305;HTU21D;37392;50.964;6.952;2023-03-04T14:10:00;9.26;82.87
51305;HTU21D;37392;50.964;6.952;2023-03-04T14:12:35;9.21;83.44
51305;HTU21D;37392;50.964;6.952;2023-03-04T14:17:44;9.16;85.06
51305;HTU21D;37392;50.964;6.952;2023-03-04T14:22:59;8.97;85.26
51305;HTU21D;37392;50.964;6.952;2023-03-04T14:25:34;8.94;85.06
51305;HTU21D;37392;50.964;6.952;2023-03-04T14:28:13;8.82;85.38
51305;HTU21D;37392;50.964;6.952;2023-03-04T14:30:42;8.80;85.54
51305;HTU21D;37392;50.964;6.952;2023-03-04T14:33:21;8.83;86.15
51305;HTU21D;37392;50.964;6.952;2023-03-04T14:35:50;8.92;86.90
51305;HTU21D;37392;50.964;6.952;2023-03-04T14:40:58;9.05;86.25
51305;HTU21D;37392;50.964;6.952;2023-03-04T14:43:26;9.18;85.74
51305;HTU21D;37392;50.964;6.952;2023-03-04T14:46:00;9.23;85.33
51305;HTU21D;37392;50.964;6.952;2023-03-04T14:48:30;9.23;85.25
51305;HTU21D;37392;50.964;6.952;2023-03-04T14:50:58;9.25;85.10
51305;HTU21D;37392;50.964;6.952;2023-03-04T14:53:28;9.24;84.86
51305;HTU21D;37392;50.964;6.952;2023-03-04T14:58:32;9.29;85.14
51305;HTU21D;37392;50.964;6.952;2023-03-04T15:01:19;9.30;84.93
51305;HTU21D;37392;50.964;6.952;2023-03-04T15:04:04;9.18;85.40
51305;HTU21D;37392;50.964;6.952;2023-03-04T15:06:33;9.18;86.54
51305;HTU21D;37392;50.964;6.952;2023-03-04T15:09:03;9.18;85.95
51305;HTU21D;37392;50.964;6.952;2023-03-04T15:11:43;9.23;85.78
51305;HTU21D;37392;50.964;6.952;2023-03-04T15:14:42;9.20;85.84
51305;HTU21D;37392;50.964;6.952;2023-03-04T15:17:41;9.18;85.85
51305;HTU21D;37392;50.964;6.952;2023-03-04T15:25:15;9.01;86.64
51305;HTU21D;37392;50.964;6.952;2023-03-04T15:27:43;8.96;88.12
51305;HTU21D;37392;50.964;6.952;2023-03-04T15:30:18;8.88;88.28
51305;HTU21D;37392;50.964;6.952;2023-03-04T15:32:50;8.79;87.70
51305;HTU21D;37392;50.964;6.952;2023-03-04T15:35:17;8.81;87.49
51305;HTU21D;37392;50.964;6.952;2023-03-04T15:37:45;8.77;87.07
51305;HTU21D;37392;50.964;6.952;2023-03-04T15:40:32;8.73;87.57
51305;HTU21D;37392;50.964;6.952;2023-03-04T15:43:02;8.65;87.49
51305;HTU21D;37392;50.964;6.952;2023-03-04T15:45:34;8.60;89.71
51305;HTU21D;37392;50.964;6.952;2023-03-04T15:48:13;8.51;91.65
51305;HTU21D;37392;50.964;6.952;2023-03-04T15:51:03;8.44;93.32
51305;HTU21D;37392;50.964;6.952;2023-03-04T15:53:38;8.32;94.26
51305;HTU21D;37392;50.964;6.952;2023-03-04T15:56:25;8.27;93.78
51305;HTU21D;37392;50.964;6.952;2023-03-04T15:58:55;8.20;93.01
51305;HTU21D;37392;50.964;6.952;2023-03-04T16:01:23;8.20;92.81
51305;HTU21D;37392;50.964;6.952;2023-03-04T16:03:52;8.18;92.70
51305;HTU21D;37392;50.964;6.952;2023-03-04T16:06:19;8.13;92.56
51305;HTU21D;37392;50.964;6.952;2023-03-04T16:08:48;8.13;93.20
51305;HTU21D;37392;50.964;6.952;2023-03-04T16:11:19;8.08;94.52
51305;HTU21D;37392;50.964;6.952;2023-03-04T16:13:50;8.03;95.26
51305;HTU21D;37392;50.964;6.952;2023-03-04T16:16:16;7.98;96.06
51305;HTU21D;37392;50.964;6.952;2023-03-04T16:18:42;7.90;95.31
51305;HTU21D;37392;50.964;6.952;2023-03-04T16:21:13;7.85;95.08
51305;HTU21D;37392;50.964;6.952;2023-03-04T16:23:43;7.79;95.10
51305;HTU21D;37392;50.964;6.952;2023-03-04T16:26:16;7.79;95.30
51305;HTU21D;37392;50.964;6.952;2023-03-04T16:28:43;7.75;95.59
51305;HTU21D;37392;50.964;6.952;2023-03-04T16:31:11;7.77;96.09
51305;HTU21D;37392;50.964;6.952;2023-03-04T16:33:37;7.74;96.31
51305;HTU21D;37392;50.964;6.952;2023-03-04T16:36:14;7.71;96.33
51305;HTU21D;37392;50.964;6.952;2023-03-04T16:38:48;7.67;96.62
51305;HTU21D;37392;50.964;6.952;2023-03-04T16:41:25;7.67;97.67
51305;HTU21D;37392;50.964;6.952;2023-03-04T16:43:52;7.58;98.70
51305;HTU21D;37392;50.964;6.952;2023-03-04T16:46:17;7.49;100.51
51305;HTU21D;37392;50.964;6.952;2023-03-04T16:48:43;7.35;103.34
51305;HTU21D;37392;50.964;6.952;2023-03-04T16:51:15;7.20;104.66
51305;HTU21D;37392;50.964;6.952;2023-03-04T16:53:48;7.11;105.96
51305;HTU21D;37392;50.964;6.952;2023-03-04T16:56:18;7.02;106.61
51305;HTU21D;37392;50.964;6.952;2023-03-04T16:58:44;6.94;107.04
51305;HTU21D;37392;50.964;6.952;2023-03-04T17:01:22;6.88;106.85
51305;HTU21D;37392;50.964;6.952;2023-03-04T17:03:53;6.84;107.18
51305;HTU21D;37392;50.964;6.952;2023-03-04T17:06:48;6.83;107.59
51305;HTU21D;37392;50.964;6.952;2023-03-04T17:09:17;6.83;107.54
51305;HTU21D;37392;50.964;6.952;2023-03-04T17:11:51;6.83;107.96
51305;HTU21D;37392;50.964;6.952;2023-03-04T17:14:21;6.83;107.83
51305;HTU21D;37392;50.964;6.952;2023-03-04T17:16:48;6.82;107.94
51305;HTU21D;37392;50.964;6.952;2023-03-04T17:19:13;6.89;107.79
51305;HTU21D;37392;50.964;6.952;2023-03-04T17:21:39;6.83;107.96
51305;HTU21D;37392;50.964;6.952;2023-03-04T17:24:05;6.83;108.53
51305;HTU21D;37392;50.964;6.952;2023-03-04T17:26:33;6.78;108.81
51305;HTU21D;37392;50.964;6.952;2023-03-04T17:28:58;6.69;109.26
51305;HTU21D;37392;50.964;6.952;2023-03-04T17:31:24;6.67;109.89
51305;HTU21D;37392;50.964;6.952;2023-03-04T17:33:50;6.61;110.10
51305;HTU21D;37392;50.964;6.952;2023-03-04T17:36:17;6.59;110.47
51305;HTU21D;37392;50.964;6.952;2023-03-04T17:38:44;6.58;110.65
51305;HTU21D;37392;50.964;6.952;2023-03-04T17:41:12;6.56;111.00